createdAt,value
2022-08-12T00:01:13.126Z,19.90
2022-08-12T00:03:59.630Z,19.80
2022-08-12T00:06:48.201Z,19.80
2022-08-12T00:09:33.678Z,19.70
2022-08-12T00:12:20.101Z,19.60
2022-08-12T00:15:06.028Z,19.60
2022-08-12T00:17:52.778Z,19.60
2022-08-12T00:20:38.731Z,19.50
2022-08-12T00:23:24.742Z,19.40
2022-08-12T00:26:23.414Z,19.40
2022-08-12T00:29:13.253Z,19.40
2022-08-12T00:32:00.629Z,19.30
2022-08-12T00:34:51.544Z,19.30
2022-08-12T00:37:40.596Z,19.20
2022-08-12T00:40:30.336Z,19.20
2022-08-12T00:42:58.699Z,19.20
2022-08-12T00:45:26.531Z,19.10
2022-08-12T00:47:54.562Z,19.10
2022-08-12T00:50:23.426Z,19.10
2022-08-12T00:52:53.103Z,19.10
2022-08-12T00:55:21.530Z,19.00
2022-08-12T00:57:52.050Z,19.00
2022-08-12T01:00:25.197Z,19.00
2022-08-12T01:02:58.222Z,18.90
2022-08-12T01:05:45.687Z,18.90
2022-08-12T01:08:32.223Z,18.90
2022-08-12T01:11:17.942Z,18.90
2022-08-12T01:13:49.862Z,18.80
2022-08-12T01:16:22.765Z,18.80
2022-08-12T01:18:53.330Z,18.80
2022-08-12T01:24:38.061Z,18.70
2022-08-12T01:27:10.824Z,18.70
2022-08-12T01:29:44.428Z,18.70
2022-08-12T01:32:16.663Z,18.70
2022-08-12T01:35:12.631Z,18.70
2022-08-12T01:38:02.684Z,18.60
2022-08-12T01:40:38.193Z,18.60
2022-08-12T01:43:12.762Z,18.60
2022-08-12T01:46:10.334Z,18.60
2022-08-12T01:49:00.551Z,18.60
2022-08-12T01:52:20.063Z,18.50
2022-08-12T01:54:32.419Z,18.50
2022-08-12T01:57:16.160Z,18.40
2022-08-12T02:00:14.514Z,18.40
2022-08-12T02:03:07.319Z,18.40
2022-08-12T02:06:23.019Z,18.30
2022-08-12T02:09:17.997Z,18.30
2022-08-12T02:12:28.523Z,18.30
2022-08-12T02:15:53.652Z,18.20
2022-08-12T02:18:45.921Z,18.10
2022-08-12T02:21:21.281Z,18.10
2022-08-12T02:23:49.359Z,18.10
2022-08-12T02:26:17.823Z,18.00
2022-08-12T02:28:46.653Z,18.00
2022-08-12T02:31:15.072Z,17.90
2022-08-12T02:33:44.163Z,17.90
2022-08-12T02:36:11.449Z,17.80
2022-08-12T02:38:43.689Z,17.80
2022-08-12T02:41:13.322Z,17.80
2022-08-12T02:44:00.875Z,17.80
2022-08-12T02:46:32.910Z,17.80
2022-08-12T02:49:24.234Z,17.70
2022-08-12T02:51:51.655Z,17.70
2022-08-12T02:54:18.972Z,17.70
2022-08-12T02:56:50.624Z,17.60
2022-08-12T02:59:24.461Z,17.60
2022-08-12T03:02:05.476Z,17.50
2022-08-12T03:04:43.615Z,17.50
2022-08-12T03:07:59.302Z,17.50
2022-08-12T03:10:37.042Z,17.40
2022-08-12T03:13:07.609Z,17.40
2022-08-12T03:15:36.048Z,17.40
2022-08-12T03:18:24.073Z,17.30
2022-08-12T03:20:55.801Z,17.30
2022-08-12T03:23:29.984Z,17.30
2022-08-12T03:26:01.931Z,17.20
2022-08-12T03:28:54.305Z,17.20
2022-08-12T03:31:23.340Z,17.20
2022-08-12T03:34:02.039Z,17.20
2022-08-12T03:36:36.394Z,17.10
2022-08-12T03:39:18.045Z,17.10
2022-08-12T03:41:52.411Z,17.10
2022-08-12T03:45:07.089Z,17.10
2022-08-12T03:47:58.785Z,17.00
2022-08-12T03:50:45.697Z,17.00
2022-08-12T03:53:36.049Z,17.00
2022-08-12T03:56:21.861Z,17.00
2022-08-12T03:59:07.936Z,17.00
2022-08-12T04:01:40.648Z,17.00
2022-08-12T04:04:10.817Z,16.90
2022-08-12T04:06:46.809Z,16.90
2022-08-12T04:09:15.669Z,16.90
2022-08-12T04:12:04.612Z,16.90
2022-08-12T04:14:33.132Z,16.90
2022-08-12T04:17:02.065Z,16.90
2022-08-12T04:19:30.409Z,16.80
2022-08-12T04:22:01.953Z,16.80
2022-08-12T04:24:36.139Z,16.80
2022-08-12T04:27:10.338Z,16.80
2022-08-12T04:30:16.533Z,16.90
2022-08-12T04:32:27.551Z,16.80
2022-08-12T04:34:55.967Z,16.80
2022-08-12T04:37:23.446Z,16.80
2022-08-12T04:39:52.111Z,16.90
2022-08-12T04:42:20.291Z,16.90
2022-08-12T04:44:48.592Z,17.00
2022-08-12T04:47:17.097Z,17.00
2022-08-12T04:49:48.250Z,17.10
2022-08-12T04:52:16.244Z,17.20
2022-08-12T04:54:44.234Z,17.20
2022-08-12T04:57:11.719Z,17.30
2022-08-12T04:59:47.978Z,17.40
2022-08-12T05:02:22.614Z,17.50
2022-08-12T05:05:00.683Z,17.70
2022-08-12T05:07:28.440Z,17.80
2022-08-12T05:10:01.834Z,17.90
2022-08-12T05:12:45.948Z,18.10
2022-08-12T05:15:27.916Z,18.30
2022-08-12T05:18:00.185Z,18.40
2022-08-12T05:20:30.961Z,18.60
2022-08-12T05:23:13.906Z,18.80
2022-08-12T05:25:56.398Z,19.00
2022-08-12T05:28:27.268Z,19.10
2022-08-12T05:30:56.611Z,19.30
2022-08-12T05:33:26.729Z,19.50
2022-08-12T05:35:54.063Z,19.60
2022-08-12T05:38:39.752Z,19.80
2022-08-12T05:41:19.265Z,20.00
2022-08-12T05:44:18.704Z,20.20
2022-08-12T05:46:45.908Z,20.40
2022-08-12T05:49:13.208Z,20.50
2022-08-12T05:51:41.865Z,20.70
2022-08-12T05:54:11.547Z,20.80
2022-08-12T05:56:41.641Z,21.00
2022-08-12T05:59:12.665Z,21.10
2022-08-12T06:02:11.343Z,21.30
2022-08-12T06:04:29.549Z,21.40
2022-08-12T06:06:57.122Z,21.60
2022-08-12T06:09:25.693Z,21.70
2022-08-12T06:12:04.782Z,21.80
2022-08-12T06:14:38.763Z,22.00
2022-08-12T06:17:08.692Z,22.10
2022-08-12T06:20:27.565Z,22.30
2022-08-12T06:22:23.327Z,22.40
2022-08-12T06:24:53.033Z,22.50
2022-08-12T06:27:21.773Z,22.60
2022-08-12T06:30:08.103Z,22.80
2022-08-12T06:32:42.861Z,22.90
2022-08-12T06:35:26.455Z,23.00
2022-08-12T06:38:25.454Z,23.10
2022-08-12T06:41:18.689Z,23.30
2022-08-12T06:44:04.955Z,23.40
2022-08-12T06:46:37.097Z,23.50
2022-08-12T06:49:04.630Z,23.60
2022-08-12T06:51:32.778Z,23.80
2022-08-12T06:54:01.980Z,23.90
2022-08-12T06:57:00.236Z,24.00
2022-08-12T06:59:21.423Z,24.20
2022-08-12T07:01:51.145Z,24.30
2022-08-12T07:04:37.213Z,24.40
2022-08-12T07:07:10.324Z,24.50
2022-08-12T07:10:03.763Z,24.70
2022-08-12T07:12:30.338Z,24.80
2022-08-12T07:14:59.452Z,24.90
2022-08-12T07:17:31.694Z,25.00
2022-08-12T07:20:04.018Z,25.10
2022-08-12T07:22:33.194Z,25.30
2022-08-12T07:25:19.362Z,25.40
2022-08-12T07:27:46.828Z,25.50
2022-08-12T07:30:14.530Z,25.60
2022-08-12T07:32:41.824Z,25.80
2022-08-12T07:35:09.429Z,25.90
2022-08-12T07:37:42.403Z,26.00
2022-08-12T07:40:12.212Z,26.10
2022-08-12T07:42:41.823Z,26.20
2022-08-12T07:45:09.658Z,26.40
2022-08-12T07:47:38.156Z,26.50
2022-08-12T07:50:09.409Z,26.60
2022-08-12T07:52:45.390Z,26.70
2022-08-12T07:55:15.113Z,26.90
2022-08-12T07:57:57.897Z,27.00
2022-08-12T08:00:28.177Z,27.20
2022-08-12T08:02:55.916Z,27.30
2022-08-12T08:05:26.224Z,27.40
2022-08-12T08:07:57.685Z,27.50
2022-08-12T08:10:26.287Z,27.60
2022-08-12T08:12:53.673Z,27.70
2022-08-12T08:15:51.137Z,27.80
2022-08-12T08:18:26.294Z,27.80
2022-08-12T08:20:56.324Z,28.00
2022-08-12T08:23:46.344Z,28.00
2022-08-12T08:26:15.668Z,28.10
2022-08-12T08:28:43.774Z,28.20
2022-08-12T08:31:12.897Z,28.30
2022-08-12T08:34:01.359Z,28.40
2022-08-12T08:36:29.294Z,28.50
2022-08-12T08:38:58.555Z,28.60
2022-08-12T08:42:16.225Z,28.70
2022-08-12T08:44:39.543Z,28.80
2022-08-12T08:47:09.907Z,28.90
2022-08-12T08:49:38.530Z,29.00
2022-08-12T08:52:08.697Z,29.10
2022-08-12T08:54:37.853Z,29.20
2022-08-12T08:57:08.326Z,29.40
2022-08-12T08:59:36.256Z,29.50
2022-08-12T09:02:03.853Z,29.60
2022-08-12T09:05:11.118Z,29.70
2022-08-12T09:07:51.120Z,29.80
2022-08-12T09:10:09.276Z,29.90
2022-08-12T09:13:06.777Z,30.00
2022-08-12T09:15:37.308Z,30.10
2022-08-12T09:18:08.799Z,30.10
2022-08-12T09:20:38.841Z,30.20
2022-08-12T09:26:03.855Z,30.20
2022-08-12T09:28:33.516Z,30.30
2022-08-12T09:31:00.964Z,30.30
2022-08-12T09:34:28.389Z,30.40
2022-08-12T09:36:30.986Z,30.50
2022-08-12T09:40:06.322Z,30.50
2022-08-12T09:42:39.101Z,30.60
2022-08-12T09:45:23.445Z,30.70
2022-08-12T09:47:59.708Z,30.80
2022-08-12T09:50:28.285Z,30.80
2022-08-12T09:53:15.406Z,30.90
2022-08-12T09:56:56.660Z,30.90
2022-08-12T09:58:59.154Z,31.00
2022-08-12T10:01:24.853Z,31.10
2022-08-12T10:04:04.904Z,31.20
2022-08-12T10:06:36.225Z,31.20
2022-08-12T10:09:08.678Z,31.30
2022-08-12T10:12:10.874Z,31.40
2022-08-12T10:14:50.267Z,31.40
2022-08-12T10:17:21.709Z,31.50
2022-08-12T10:19:52.492Z,31.50
2022-08-12T10:22:38.992Z,31.60
2022-08-12T10:26:18.384Z,31.70
2022-08-12T10:28:38.211Z,31.80
2022-08-12T10:31:06.635Z,32.00
2022-08-12T10:34:05.244Z,32.10
2022-08-12T10:36:36.340Z,32.10
2022-08-12T10:40:02.268Z,32.30
2022-08-12T10:42:45.917Z,32.40
2022-08-12T10:45:14.369Z,32.50
2022-08-12T10:48:16.010Z,32.50
2022-08-12T10:50:58.601Z,32.60
2022-08-12T10:53:20.419Z,32.70
2022-08-12T10:56:08.227Z,32.80
2022-08-12T10:58:36.679Z,32.80
2022-08-12T11:03:01.448Z,32.90
2022-08-12T11:04:35.516Z,32.90
2022-08-12T11:07:09.012Z,33.00
2022-08-12T11:09:41.698Z,33.10
2022-08-12T11:12:54.770Z,33.20
2022-08-12T11:15:18.856Z,33.10
2022-08-12T11:17:52.668Z,33.10
2022-08-12T11:20:24.266Z,33.00
2022-08-12T11:23:26.083Z,33.00
2022-08-12T11:25:57.488Z,32.90
2022-08-12T11:28:34.602Z,32.80
2022-08-12T11:31:09.921Z,32.70
2022-08-12T11:34:04.361Z,32.60
2022-08-12T11:36:29.184Z,32.40
2022-08-12T11:38:58.184Z,32.10
2022-08-12T11:41:31.277Z,32.00
2022-08-12T11:44:35.918Z,31.80
2022-08-12T11:46:54.666Z,31.60
2022-08-12T11:49:32.346Z,31.50
2022-08-12T11:52:04.265Z,31.40
2022-08-12T11:54:51.026Z,31.30
2022-08-12T11:58:09.173Z,31.10
2022-08-12T12:02:54.554Z,30.90
2022-08-12T12:05:22.082Z,30.80
2022-08-12T12:08:38.197Z,30.60
2022-08-12T12:10:43.200Z,30.60
2022-08-12T12:13:11.719Z,30.50
2022-08-12T12:15:51.198Z,30.40
2022-08-12T12:18:31.091Z,30.40
2022-08-12T12:21:08.230Z,30.40
2022-08-12T12:23:36.606Z,30.40
2022-08-12T12:26:08.020Z,30.30
2022-08-12T12:28:39.724Z,30.30
2022-08-12T12:31:14.869Z,30.30
2022-08-12T12:33:57.731Z,30.30
2022-08-12T12:36:29.750Z,30.30
2022-08-12T12:38:58.087Z,30.40
2022-08-12T12:42:52.189Z,30.40
2022-08-12T12:44:30.194Z,30.50
2022-08-12T12:47:03.441Z,30.50
2022-08-12T12:49:30.675Z,30.50
2022-08-12T12:52:18.544Z,30.50
2022-08-12T12:54:52.921Z,30.50
2022-08-12T12:57:35.852Z,30.60
2022-08-12T13:00:15.690Z,30.60
2022-08-12T13:02:57.080Z,30.60
2022-08-12T13:05:42.273Z,30.70
2022-08-12T13:08:28.030Z,30.70
2022-08-12T13:11:05.446Z,30.80
2022-08-12T13:14:07.448Z,30.80
2022-08-12T13:16:30.332Z,30.90
2022-08-12T13:18:58.435Z,31.00
2022-08-12T13:21:36.863Z,31.10
2022-08-12T13:24:10.828Z,31.20
2022-08-12T13:26:40.552Z,31.30
2022-08-12T13:29:11.664Z,31.30
2022-08-12T13:31:46.448Z,31.40
2022-08-12T13:34:34.183Z,31.50
2022-08-12T13:37:09.199Z,31.50
2022-08-12T13:39:39.110Z,31.60
2022-08-12T13:42:13.793Z,31.70
2022-08-12T13:44:42.805Z,31.80
2022-08-12T13:47:18.484Z,31.90
2022-08-12T13:49:53.928Z,32.00
2022-08-12T13:52:23.697Z,32.10
2022-08-12T13:54:54.179Z,32.30
2022-08-12T13:57:25.699Z,32.30
2022-08-12T13:59:55.595Z,32.40
2022-08-12T14:02:27.891Z,32.30
2022-08-12T14:04:56.799Z,32.30
2022-08-12T14:07:26.086Z,32.20
2022-08-12T14:10:16.442Z,32.00
2022-08-12T14:12:54.600Z,31.90
2022-08-12T14:15:34.948Z,31.80
2022-08-12T14:18:26.000Z,31.80
2022-08-12T14:21:01.945Z,31.70
2022-08-12T14:24:04.638Z,31.60
2022-08-12T14:26:26.315Z,31.50
2022-08-12T14:28:57.802Z,31.50
2022-08-12T14:31:31.440Z,31.50
2022-08-12T14:33:59.948Z,31.40
2022-08-12T14:36:27.473Z,31.40
2022-08-12T14:38:56.038Z,31.30
2022-08-12T14:41:37.315Z,31.20
2022-08-12T14:44:57.667Z,31.20
2022-08-12T14:47:01.073Z,31.30
2022-08-12T14:50:33.460Z,31.30
2022-08-12T14:53:48.781Z,31.30
2022-08-12T14:58:01.934Z,31.50
2022-08-12T15:00:52.422Z,31.60
2022-08-12T15:03:52.433Z,31.70
2022-08-12T15:06:39.261Z,31.80
2022-08-12T15:09:09.239Z,31.80
2022-08-12T15:11:55.751Z,31.70
2022-08-12T15:14:30.290Z,31.70
2022-08-12T15:17:00.663Z,31.70
2022-08-12T15:20:31.955Z,31.80
2022-08-12T15:22:39.276Z,31.80
2022-08-12T15:25:07.883Z,31.90
2022-08-12T15:28:11.062Z,32.00
2022-08-12T15:30:32.106Z,32.10
2022-08-12T15:32:59.574Z,32.30
2022-08-12T15:35:31.180Z,32.40
2022-08-12T15:38:10.224Z,32.50
2022-08-12T15:40:46.826Z,32.60
2022-08-12T15:44:14.075Z,32.80
2022-08-12T15:46:06.431Z,32.90
2022-08-12T15:48:34.278Z,33.20
2022-08-12T15:51:03.146Z,33.40
2022-08-12T15:53:53.076Z,33.60
2022-08-12T15:56:29.265Z,33.80
2022-08-12T15:59:00.894Z,34.10
2022-08-12T16:01:35.115Z,34.40
2022-08-12T16:04:05.169Z,34.50
2022-08-12T16:07:00.487Z,34.60
2022-08-12T16:09:56.133Z,34.40
2022-08-12T16:12:12.297Z,34.20
2022-08-12T16:14:41.819Z,33.90
2022-08-12T16:17:14.775Z,33.60
2022-08-12T16:20:05.294Z,33.40
2022-08-12T16:22:30.299Z,33.30
2022-08-12T16:24:57.521Z,33.10
2022-08-12T16:27:29.714Z,32.80
2022-08-12T16:29:57.751Z,32.60
2022-08-12T16:32:31.715Z,32.40
2022-08-12T16:35:01.544Z,32.10
2022-08-12T16:38:05.019Z,31.90
2022-08-12T16:40:18.849Z,31.80
2022-08-12T16:42:54.201Z,31.70
2022-08-12T16:45:32.275Z,31.80
2022-08-12T16:48:34.947Z,31.90
2022-08-12T16:51:09.784Z,32.10
2022-08-12T16:53:44.805Z,32.30
2022-08-12T16:56:17.104Z,32.70
2022-08-12T16:58:47.286Z,33.00
2022-08-12T17:01:15.727Z,33.30
2022-08-12T17:03:52.285Z,33.60
2022-08-12T17:06:27.525Z,33.90
2022-08-12T17:09:03.331Z,34.30
2022-08-12T17:11:38.825Z,34.60
2022-08-12T17:14:08.337Z,34.90
2022-08-12T17:16:37.510Z,35.20
2022-08-12T17:19:09.475Z,35.50
2022-08-12T17:21:40.703Z,35.80
2022-08-12T17:24:22.470Z,36.00
2022-08-12T17:27:00.656Z,36.20
2022-08-12T17:30:01.523Z,36.40
2022-08-12T17:32:16.332Z,36.50
2022-08-12T17:35:10.863Z,36.40
2022-08-12T17:37:39.641Z,36.30
2022-08-12T17:40:13.854Z,36.00
2022-08-12T17:42:47.866Z,35.80
2022-08-12T17:45:20.054Z,35.50
2022-08-12T17:48:02.305Z,35.20
2022-08-12T17:50:35.971Z,34.80
2022-08-12T17:53:04.760Z,34.30
2022-08-12T17:55:40.179Z,33.90
2022-08-12T17:58:13.773Z,33.40
2022-08-12T18:00:47.508Z,32.90
2022-08-12T18:04:04.843Z,32.40
2022-08-12T18:06:13.729Z,32.00
2022-08-12T18:08:54.917Z,31.50
2022-08-12T18:12:05.417Z,31.10
2022-08-12T18:14:37.046Z,30.60
2022-08-12T18:17:08.711Z,30.20
2022-08-12T18:20:04.953Z,29.80
2022-08-12T18:22:30.391Z,29.50
2022-08-12T18:25:06.592Z,29.10
2022-08-12T18:27:44.705Z,28.80
2022-08-12T18:30:20.943Z,28.50
2022-08-12T18:33:03.471Z,28.20
2022-08-12T18:35:47.185Z,27.90
2022-08-12T18:38:24.693Z,27.70
2022-08-12T18:41:20.755Z,27.40
2022-08-12T18:44:02.467Z,27.20
2022-08-12T18:46:53.935Z,26.90
2022-08-12T18:49:32.066Z,26.70
2022-08-12T18:52:05.691Z,26.50
2022-08-12T18:54:49.390Z,26.30
2022-08-12T18:58:07.005Z,26.10
2022-08-12T19:00:22.295Z,25.90
2022-08-12T19:02:55.890Z,25.70
2022-08-12T19:05:52.966Z,25.50
2022-08-12T19:08:15.611Z,25.40
2022-08-12T19:10:49.935Z,25.20
2022-08-12T19:13:37.757Z,25.00
2022-08-12T19:16:12.541Z,24.90
2022-08-12T19:18:44.906Z,24.70
2022-08-12T19:21:16.624Z,24.50
2022-08-12T19:24:07.694Z,24.30
2022-08-12T19:26:36.277Z,24.20
2022-08-12T19:29:07.716Z,24.00
2022-08-12T19:31:57.794Z,23.90
2022-08-12T19:35:54.055Z,23.70
2022-08-12T19:38:02.705Z,23.60
2022-08-12T19:40:31.808Z,23.50
2022-08-12T19:43:18.950Z,23.40
2022-08-12T19:45:56.313Z,23.20
2022-08-12T19:48:30.832Z,23.10
2022-08-12T19:51:09.059Z,23.00
2022-08-12T19:53:57.541Z,22.90
2022-08-12T19:56:29.613Z,22.80
2022-08-12T19:59:20.768Z,22.70
2022-08-12T20:02:02.376Z,22.60
2022-08-12T20:04:32.968Z,22.50
2022-08-12T20:07:00.315Z,22.40
2022-08-12T20:09:38.865Z,22.30
2022-08-12T20:12:13.027Z,22.20
2022-08-12T20:14:52.570Z,22.00
2022-08-12T20:17:23.581Z,22.00
2022-08-12T20:20:17.795Z,21.90
2022-08-12T20:22:42.357Z,21.80
2022-08-12T20:25:15.591Z,21.70
2022-08-12T20:28:05.063Z,21.60
2022-08-12T20:30:53.164Z,21.50
2022-08-12T20:33:32.242Z,21.30
2022-08-12T20:36:41.364Z,21.20
2022-08-12T20:39:05.623Z,21.10
2022-08-12T20:41:58.844Z,21.00
2022-08-12T20:44:28.309Z,20.90
2022-08-12T20:46:58.179Z,20.90
2022-08-12T20:49:25.664Z,20.80
2022-08-12T20:51:59.543Z,20.70
2022-08-12T20:54:34.036Z,20.60
2022-08-12T20:57:09.967Z,20.50
2022-08-12T20:59:47.697Z,20.50
2022-08-12T21:02:15.676Z,20.40
2022-08-12T21:05:01.642Z,20.30
2022-08-12T21:07:40.769Z,20.20
2022-08-12T21:10:15.101Z,20.20
2022-08-12T21:12:42.839Z,20.10
2022-08-12T21:15:23.235Z,20.00
2022-08-12T21:18:12.002Z,20.00
2022-08-12T21:20:54.315Z,19.90
2022-08-12T21:23:22.613Z,19.80
2022-08-12T21:25:53.915Z,19.80
2022-08-12T21:28:31.178Z,19.70
2022-08-12T21:32:35.095Z,19.70
2022-08-12T21:34:07.496Z,19.60
2022-08-12T21:36:39.674Z,19.60
2022-08-12T21:39:27.840Z,19.50
2022-08-12T21:42:05.394Z,19.40
2022-08-12T21:45:45.683Z,19.40
2022-08-12T21:47:24.674Z,19.30
2022-08-12T21:50:03.295Z,19.20
2022-08-12T21:52:36.678Z,19.20
2022-08-12T21:55:17.919Z,19.10
2022-08-12T21:57:53.426Z,19.10
2022-08-12T22:00:33.328Z,19.00
2022-08-12T22:04:02.962Z,18.90
2022-08-12T22:06:20.244Z,18.90
2022-08-12T22:09:04.004Z,18.80
2022-08-12T22:11:41.427Z,18.80
2022-08-12T22:14:21.714Z,18.70
2022-08-12T22:16:54.907Z,18.60
2022-08-12T22:19:23.721Z,18.60
2022-08-12T22:21:58.560Z,18.50
2022-08-12T22:24:31.092Z,18.50
2022-08-12T22:27:18.045Z,18.40
2022-08-12T22:30:16.458Z,18.30
2022-08-12T22:32:49.700Z,18.30
2022-08-12T22:35:55.914Z,18.20
2022-08-12T22:38:26.676Z,18.20
2022-08-12T22:41:28.535Z,18.10
2022-08-12T22:44:17.415Z,18.10
2022-08-12T22:46:54.331Z,18.00
2022-08-12T22:49:48.777Z,18.00
2022-08-12T22:52:22.679Z,17.90
2022-08-12T22:55:02.260Z,17.80
2022-08-12T22:57:54.184Z,17.80
2022-08-12T23:00:24.142Z,17.70
2022-08-12T23:02:56.961Z,17.70
2022-08-12T23:05:56.772Z,17.60
2022-08-12T23:08:30.147Z,17.60
2022-08-12T23:11:06.056Z,17.60
2022-08-12T23:13:54.927Z,17.50
2022-08-12T23:16:31.117Z,17.50
2022-08-12T23:19:09.616Z,17.40
2022-08-12T23:22:04.344Z,17.40
2022-08-12T23:24:55.924Z,17.30
2022-08-12T23:27:51.873Z,17.30
2022-08-12T23:30:31.374Z,17.20
2022-08-12T23:33:13.474Z,17.20
2022-08-12T23:35:59.222Z,17.10
2022-08-12T23:38:32.298Z,17.10
2022-08-12T23:41:05.680Z,17.10
2022-08-12T23:43:38.967Z,17.00
2022-08-12T23:46:18.530Z,17.00
2022-08-12T23:48:52.119Z,17.00
2022-08-12T23:51:25.349Z,16.90
2022-08-12T23:54:00.340Z,16.90
2022-08-12T23:56:33.693Z,16.90
2022-08-12T23:59:06.811Z,16.80
